sensor_id;sensor_type;location;lat;lon;timestamp;temperature;humidity
45785;DHT22;31489;51.404;5.474;2023-03-11T00:00:07;5.10;77.00
45785;DHT22;31489;51.404;5.474;2023-03-11T00:02:38;5.10;77.10
45785;DHT22;31489;51.404;5.474;2023-03-11T00:05:05;5.00;77.00
45785;DHT22;31489;51.404;5.474;2023-03-11T00:07:30;5.10;77.00
45785;DHT22;31489;51.404;5.474;2023-03-11T00:09:56;5.10;76.80
45785;DHT22;31489;51.404;5.474;2023-03-11T00:12:21;5.10;76.50
45785;DHT22;31489;51.404;5.474;2023-03-11T00:14:47;5.10;76.40
45785;DHT22;31489;51.404;5.474;2023-03-11T00:17:13;5.10;76.10
45785;DHT22;31489;51.404;5.474;2023-03-11T00:19:38;5.10;76.20
45785;DHT22;31489;51.404;5.474;2023-03-11T00:22:04;5.00;75.90
45785;DHT22;31489;51.404;5.474;2023-03-11T00:24:30;5.00;75.70
45785;DHT22;31489;51.404;5.474;2023-03-11T00:26:55;5.00;76.00
45785;DHT22;31489;51.404;5.474;2023-03-11T00:29:21;5.00;76.20
45785;DHT22;31489;51.404;5.474;2023-03-11T00:31:46;5.00;76.30
45785;DHT22;31489;51.404;5.474;2023-03-11T00:34:12;5.00;76.60
45785;DHT22;31489;51.404;5.474;2023-03-11T00:36:38;5.00;76.20
45785;DHT22;31489;51.404;5.474;2023-03-11T00:39:04;5.00;76.40
45785;DHT22;31489;51.404;5.474;2023-03-11T00:41:32;5.00;76.50
45785;DHT22;31489;51.404;5.474;2023-03-11T00:43:58;5.00;76.80
45785;DHT22;31489;51.404;5.474;2023-03-11T00:46:23;5.00;76.50
45785;DHT22;31489;51.404;5.474;2023-03-11T00:48:50;5.00;76.60
45785;DHT22;31489;51.404;5.474;2023-03-11T00:51:16;5.00;76.60
45785;DHT22;31489;51.404;5.474;2023-03-11T00:53:41;5.00;76.20
45785;DHT22;31489;51.404;5.474;2023-03-11T00:56:11;5.00;76.30
45785;DHT22;31489;51.404;5.474;2023-03-11T00:58:37;5.00;76.60
45785;DHT22;31489;51.404;5.474;2023-03-11T01:01:12;5.00;76.80
45785;DHT22;31489;51.404;5.474;2023-03-11T01:03:39;5.00;76.70
45785;DHT22;31489;51.404;5.474;2023-03-11T01:06:04;5.00;77.00
45785;DHT22;31489;51.404;5.474;2023-03-11T01:08:30;4.90;76.90
45785;DHT22;31489;51.404;5.474;2023-03-11T01:10:57;5.00;76.60
45785;DHT22;31489;51.404;5.474;2023-03-11T01:13:23;4.90;76.90
45785;DHT22;31489;51.404;5.474;2023-03-11T01:15:49;4.90;76.60
45785;DHT22;31489;51.404;5.474;2023-03-11T01:18:15;4.90;76.80
45785;DHT22;31489;51.404;5.474;2023-03-11T01:20:44;4.90;76.90
45785;DHT22;31489;51.404;5.474;2023-03-11T01:23:10;4.90;77.20
45785;DHT22;31489;51.404;5.474;2023-03-11T01:25:36;5.00;77.20
45785;DHT22;31489;51.404;5.474;2023-03-11T01:28:02;5.00;77.20
45785;DHT22;31489;51.404;5.474;2023-03-11T01:30:31;5.00;76.90
45785;DHT22;31489;51.404;5.474;2023-03-11T01:32:57;5.00;77.00
45785;DHT22;31489;51.404;5.474;2023-03-11T01:35:24;5.00;76.80
45785;DHT22;31489;51.404;5.474;2023-03-11T01:37:50;5.00;76.60
45785;DHT22;31489;51.404;5.474;2023-03-11T01:40:37;5.00;76.30
45785;DHT22;31489;51.404;5.474;2023-03-11T01:43:04;5.00;75.90
45785;DHT22;31489;51.404;5.474;2023-03-11T01:48:14;5.00;76.70
45785;DHT22;31489;51.404;5.474;2023-03-11T01:50:45;5.00;76.60
45785;DHT22;31489;51.404;5.474;2023-03-11T01:53:15;5.00;76.00
45785;DHT22;31489;51.404;5.474;2023-03-11T01:55:42;5.00;76.60
45785;DHT22;31489;51.404;5.474;2023-03-11T01:58:10;5.00;76.50
45785;DHT22;31489;51.404;5.474;2023-03-11T02:00:38;5.00;76.30
45785;DHT22;31489;51.404;5.474;2023-03-11T02:03:10;5.10;76.70
45785;DHT22;31489;51.404;5.474;2023-03-11T02:05:38;5.00;76.10
45785;DHT22;31489;51.404;5.474;2023-03-11T02:08:04;5.10;76.30
45785;DHT22;31489;51.404;5.474;2023-03-11T02:10:30;5.10;76.10
45785;DHT22;31489;51.404;5.474;2023-03-11T02:12:56;5.10;76.00
45785;DHT22;31489;51.404;5.474;2023-03-11T02:15:23;5.00;75.90
45785;DHT22;31489;51.404;5.474;2023-03-11T02:17:50;5.00;75.90
45785;DHT22;31489;51.404;5.474;2023-03-11T02:23:19;5.00;75.10
45785;DHT22;31489;51.404;5.474;2023-03-11T02:28:32;5.00;76.10
45785;DHT22;31489;51.404;5.474;2023-03-11T02:31:02;5.00;75.90
45785;DHT22;31489;51.404;5.474;2023-03-11T02:33:30;5.00;75.80
45785;DHT22;31489;51.404;5.474;2023-03-11T02:35:57;5.00;75.60
45785;DHT22;31489;51.404;5.474;2023-03-11T02:38:23;5.00;75.70
45785;DHT22;31489;51.404;5.474;2023-03-11T02:41:00;4.90;75.80
45785;DHT22;31489;51.404;5.474;2023-03-11T02:43:42;4.90;75.10
45785;DHT22;31489;51.404;5.474;2023-03-11T02:46:10;4.90;75.30
45785;DHT22;31489;51.404;5.474;2023-03-11T02:48:37;4.90;75.70
45785;DHT22;31489;51.404;5.474;2023-03-11T02:51:03;4.90;75.90
45785;DHT22;31489;51.404;5.474;2023-03-11T02:53:32;4.90;75.90
45785;DHT22;31489;51.404;5.474;2023-03-11T02:55:59;4.80;75.60
45785;DHT22;31489;51.404;5.474;2023-03-11T02:58:25;4.90;76.00
45785;DHT22;31489;51.404;5.474;2023-03-11T03:00:51;4.80;75.90
45785;DHT22;31489;51.404;5.474;2023-03-11T03:03:16;4.80;76.20
45785;DHT22;31489;51.404;5.474;2023-03-11T03:05:42;4.80;76.50
45785;DHT22;31489;51.404;5.474;2023-03-11T03:08:08;4.80;76.60
45785;DHT22;31489;51.404;5.474;2023-03-11T03:10:33;4.80;76.50
45785;DHT22;31489;51.404;5.474;2023-03-11T03:12:59;4.80;76.50
45785;DHT22;31489;51.404;5.474;2023-03-11T03:15:25;4.80;76.30
45785;DHT22;31489;51.404;5.474;2023-03-11T03:17:53;4.80;76.60
45785;DHT22;31489;51.404;5.474;2023-03-11T03:20:19;4.80;76.60
45785;DHT22;31489;51.404;5.474;2023-03-11T03:22:47;4.80;76.60
45785;DHT22;31489;51.404;5.474;2023-03-11T03:25:13;4.80;77.00
45785;DHT22;31489;51.404;5.474;2023-03-11T03:27:38;4.90;76.20
45785;DHT22;31489;51.404;5.474;2023-03-11T03:30:06;4.80;76.00
45785;DHT22;31489;51.404;5.474;2023-03-11T03:32:32;4.90;76.10
45785;DHT22;31489;51.404;5.474;2023-03-11T03:35:00;4.80;75.90
45785;DHT22;31489;51.404;5.474;2023-03-11T03:37:27;4.80;75.70
45785;DHT22;31489;51.404;5.474;2023-03-11T03:39:53;4.80;75.60
45785;DHT22;31489;51.404;5.474;2023-03-11T03:42:19;4.90;75.70
45785;DHT22;31489;51.404;5.474;2023-03-11T03:44:45;4.80;75.70
45785;DHT22;31489;51.404;5.474;2023-03-11T03:47:11;4.80;75.80
45785;DHT22;31489;51.404;5.474;2023-03-11T03:49:37;4.80;75.90
45785;DHT22;31489;51.404;5.474;2023-03-11T03:52:05;4.80;76.10
45785;DHT22;31489;51.404;5.474;2023-03-11T03:54:31;4.80;75.70
45785;DHT22;31489;51.404;5.474;2023-03-11T03:56:57;4.80;75.70
45785;DHT22;31489;51.404;5.474;2023-03-11T03:59:23;4.70;75.90
45785;DHT22;31489;51.404;5.474;2023-03-11T04:01:48;4.70;76.00
45785;DHT22;31489;51.404;5.474;2023-03-11T04:04:14;4.70;76.20
45785;DHT22;31489;51.404;5.474;2023-03-11T04:06:40;4.70;76.10
45785;DHT22;31489;51.404;5.474;2023-03-11T04:09:06;4.70;75.90
45785;DHT22;31489;51.404;5.474;2023-03-11T04:11:32;4.70;76.00
45785;DHT22;31489;51.404;5.474;2023-03-11T04:13:57;4.60;76.00
45785;DHT22;31489;51.404;5.474;2023-03-11T04:16:23;4.60;76.00
45785;DHT22;31489;51.404;5.474;2023-03-11T04:18:49;4.70;76.00
45785;DHT22;31489;51.404;5.474;2023-03-11T04:21:15;4.60;76.20
45785;DHT22;31489;51.404;5.474;2023-03-11T04:23:41;4.60;76.30
45785;DHT22;31489;51.404;5.474;2023-03-11T04:26:06;4.60;76.60
45785;DHT22;31489;51.404;5.474;2023-03-11T04:28:32;4.60;76.70
45785;DHT22;31489;51.404;5.474;2023-03-11T04:30:58;4.60;76.60
45785;DHT22;31489;51.404;5.474;2023-03-11T04:33:23;4.60;76.50
45785;DHT22;31489;51.404;5.474;2023-03-11T04:35:49;4.60;77.20
45785;DHT22;31489;51.404;5.474;2023-03-11T04:38:15;4.60;76.70
45785;DHT22;31489;51.404;5.474;2023-03-11T04:40:41;4.60;76.70
45785;DHT22;31489;51.404;5.474;2023-03-11T04:43:06;4.60;76.70
45785;DHT22;31489;51.404;5.474;2023-03-11T04:45:32;4.60;76.80
45785;DHT22;31489;51.404;5.474;2023-03-11T04:47:58;4.60;76.80
45785;DHT22;31489;51.404;5.474;2023-03-11T04:50:24;4.60;76.60
45785;DHT22;31489;51.404;5.474;2023-03-11T04:52:49;4.60;76.60
45785;DHT22;31489;51.404;5.474;2023-03-11T04:55:15;4.60;76.80
45785;DHT22;31489;51.404;5.474;2023-03-11T04:57:42;4.60;76.80
45785;DHT22;31489;51.404;5.474;2023-03-11T05:00:09;4.60;76.80
45785;DHT22;31489;51.404;5.474;2023-03-11T05:02:38;4.60;76.80
45785;DHT22;31489;51.404;5.474;2023-03-11T05:05:05;4.50;76.60
45785;DHT22;31489;51.404;5.474;2023-03-11T05:07:31;4.50;76.80
45785;DHT22;31489;51.404;5.474;2023-03-11T05:09:56;4.50;76.70
45785;DHT22;31489;51.404;5.474;2023-03-11T05:12:22;4.50;76.70
45785;DHT22;31489;51.404;5.474;2023-03-11T05:14:47;4.50;76.70
45785;DHT22;31489;51.404;5.474;2023-03-11T05:17:13;4.40;76.70
45785;DHT22;31489;51.404;5.474;2023-03-11T05:19:39;4.40;76.80
45785;DHT22;31489;51.404;5.474;2023-03-11T05:22:06;4.40;76.80
45785;DHT22;31489;51.404;5.474;2023-03-11T05:24:32;4.40;76.90
45785;DHT22;31489;51.404;5.474;2023-03-11T05:26:57;4.40;77.00
45785;DHT22;31489;51.404;5.474;2023-03-11T05:29:23;4.40;77.00
45785;DHT22;31489;51.404;5.474;2023-03-11T05:31:49;4.40;76.90
45785;DHT22;31489;51.404;5.474;2023-03-11T05:34:16;4.30;76.90
45785;DHT22;31489;51.404;5.474;2023-03-11T05:36:42;4.30;77.00
45785;DHT22;31489;51.404;5.474;2023-03-11T05:39:08;4.30;76.70
45785;DHT22;31489;51.404;5.474;2023-03-11T05:41:34;4.30;76.70
45785;DHT22;31489;51.404;5.474;2023-03-11T05:43:59;4.30;76.70
45785;DHT22;31489;51.404;5.474;2023-03-11T05:46:25;4.30;76.80
45785;DHT22;31489;51.404;5.474;2023-03-11T05:48:51;4.20;76.90
45785;DHT22;31489;51.404;5.474;2023-03-11T05:51:16;4.30;76.90
45785;DHT22;31489;51.404;5.474;2023-03-11T05:53:43;4.20;76.90
45785;DHT22;31489;51.404;5.474;2023-03-11T05:56:13;4.20;76.80
45785;DHT22;31489;51.404;5.474;2023-03-11T05:58:38;4.20;76.90
45785;DHT22;31489;51.404;5.474;2023-03-11T06:01:12;4.20;77.00
45785;DHT22;31489;51.404;5.474;2023-03-11T06:03:39;4.20;76.70
45785;DHT22;31489;51.404;5.474;2023-03-11T06:06:07;4.20;76.90
45785;DHT22;31489;51.404;5.474;2023-03-11T06:08:33;4.20;76.90
45785;DHT22;31489;51.404;5.474;2023-03-11T06:11:01;4.20;77.10
45785;DHT22;31489;51.404;5.474;2023-03-11T06:13:26;4.20;77.20
45785;DHT22;31489;51.404;5.474;2023-03-11T06:15:52;4.20;77.20
45785;DHT22;31489;51.404;5.474;2023-03-11T06:18:18;4.20;77.20
45785;DHT22;31489;51.404;5.474;2023-03-11T06:20:43;4.20;77.20
45785;DHT22;31489;51.404;5.474;2023-03-11T06:23:11;4.10;77.20
45785;DHT22;31489;51.404;5.474;2023-03-11T06:25:37;4.10;77.20
45785;DHT22;31489;51.404;5.474;2023-03-11T06:28:03;4.10;77.30
45785;DHT22;31489;51.404;5.474;2023-03-11T06:30:29;4.10;77.30
45785;DHT22;31489;51.404;5.474;2023-03-11T06:32:54;4.10;77.20
45785;DHT22;31489;51.404;5.474;2023-03-11T06:35:20;4.10;77.40
45785;DHT22;31489;51.404;5.474;2023-03-11T06:37:46;4.10;77.40
45785;DHT22;31489;51.404;5.474;2023-03-11T06:40:12;4.10;77.30
45785;DHT22;31489;51.404;5.474;2023-03-11T06:42:38;4.10;77.30
45785;DHT22;31489;51.404;5.474;2023-03-11T06:45:05;4.10;77.30
45785;DHT22;31489;51.404;5.474;2023-03-11T06:47:30;4.10;77.30
45785;DHT22;31489;51.404;5.474;2023-03-11T06:49:56;4.10;77.10
45785;DHT22;31489;51.404;5.474;2023-03-11T06:52:24;4.10;77.30
45785;DHT22;31489;51.404;5.474;2023-03-11T06:54:50;4.00;77.20
45785;DHT22;31489;51.404;5.474;2023-03-11T06:57:16;4.10;77.40
45785;DHT22;31489;51.404;5.474;2023-03-11T06:59:42;4.10;77.30
45785;DHT22;31489;51.404;5.474;2023-03-11T07:02:11;4.10;77.30
45785;DHT22;31489;51.404;5.474;2023-03-11T07:04:38;4.10;77.10
45785;DHT22;31489;51.404;5.474;2023-03-11T07:07:06;4.20;77.30
45785;DHT22;31489;51.404;5.474;2023-03-11T07:09:32;4.10;77.20
45785;DHT22;31489;51.404;5.474;2023-03-11T07:11:57;4.10;77.30
45785;DHT22;31489;51.404;5.474;2023-03-11T07:14:23;4.10;77.60
45785;DHT22;31489;51.404;5.474;2023-03-11T07:16:48;4.20;77.80
45785;DHT22;31489;51.404;5.474;2023-03-11T07:19:14;4.20;77.80
45785;DHT22;31489;51.404;5.474;2023-03-11T07:21:40;4.20;77.80
45785;DHT22;31489;51.404;5.474;2023-03-11T07:24:06;4.30;77.70
45785;DHT22;31489;51.404;5.474;2023-03-11T07:26:33;4.30;77.70
45785;DHT22;31489;51.404;5.474;2023-03-11T07:28:59;4.30;77.60
45785;DHT22;31489;51.404;5.474;2023-03-11T07:31:30;4.30;77.70
45785;DHT22;31489;51.404;5.474;2023-03-11T07:34:02;4.40;78.00
45785;DHT22;31489;51.404;5.474;2023-03-11T07:36:28;4.40;78.00
45785;DHT22;31489;51.404;5.474;2023-03-11T07:38:56;4.40;77.90
45785;DHT22;31489;51.404;5.474;2023-03-11T07:41:24;4.50;78.20
45785;DHT22;31489;51.404;5.474;2023-03-11T07:43:53;4.60;78.40
45785;DHT22;31489;51.404;5.474;2023-03-11T07:46:20;4.60;78.00
45785;DHT22;31489;51.404;5.474;2023-03-11T07:48:47;4.60;78.20
45785;DHT22;31489;51.404;5.474;2023-03-11T07:51:22;4.70;78.60
45785;DHT22;31489;51.404;5.474;2023-03-11T07:53:48;4.70;78.50
45785;DHT22;31489;51.404;5.474;2023-03-11T07:56:15;4.80;78.90
45785;DHT22;31489;51.404;5.474;2023-03-11T07:58:41;4.80;78.70
45785;DHT22;31489;51.404;5.474;2023-03-11T08:01:12;4.80;78.40
45785;DHT22;31489;51.404;5.474;2023-03-11T08:03:41;4.90;77.90
45785;DHT22;31489;51.404;5.474;2023-03-11T08:06:25;4.90;78.60
45785;DHT22;31489;51.404;5.474;2023-03-11T08:08:51;5.00;77.50
45785;DHT22;31489;51.404;5.474;2023-03-11T08:11:17;5.00;78.00
45785;DHT22;31489;51.404;5.474;2023-03-11T08:13:44;5.10;77.90
45785;DHT22;31489;51.404;5.474;2023-03-11T08:16:13;5.10;77.60
45785;DHT22;31489;51.404;5.474;2023-03-11T08:18:42;5.10;77.50
45785;DHT22;31489;51.404;5.474;2023-03-11T08:21:10;5.20;77.70
45785;DHT22;31489;51.404;5.474;2023-03-11T08:23:36;5.20;77.70
45785;DHT22;31489;51.404;5.474;2023-03-11T08:26:07;5.20;77.50
45785;DHT22;31489;51.404;5.474;2023-03-11T08:28:37;5.30;77.50
45785;DHT22;31489;51.404;5.474;2023-03-11T08:31:19;5.40;78.00
45785;DHT22;31489;51.404;5.474;2023-03-11T08:33:47;5.40;77.10
45785;DHT22;31489;51.404;5.474;2023-03-11T08:36:19;5.50;77.70
45785;DHT22;31489;51.404;5.474;2023-03-11T08:38:45;5.60;77.50
45785;DHT22;31489;51.404;5.474;2023-03-11T08:41:11;5.70;77.10
45785;DHT22;31489;51.404;5.474;2023-03-11T08:43:37;5.70;76.50
45785;DHT22;31489;51.404;5.474;2023-03-11T08:46:04;5.80;76.20
45785;DHT22;31489;51.404;5.474;2023-03-11T08:48:33;5.90;75.80
45785;DHT22;31489;51.404;5.474;2023-03-11T08:50:59;6.00;75.50
45785;DHT22;31489;51.404;5.474;2023-03-11T08:53:25;6.10;75.70
45785;DHT22;31489;51.404;5.474;2023-03-11T08:55:51;6.20;75.40
45785;DHT22;31489;51.404;5.474;2023-03-11T08:58:20;6.30;75.60
45785;DHT22;31489;51.404;5.474;2023-03-11T09:00:46;6.40;76.40
45785;DHT22;31489;51.404;5.474;2023-03-11T09:03:12;6.50;76.30
45785;DHT22;31489;51.404;5.474;2023-03-11T09:05:39;6.60;75.40
45785;DHT22;31489;51.404;5.474;2023-03-11T09:08:05;6.70;75.90
45785;DHT22;31489;51.404;5.474;2023-03-11T09:10:31;6.80;74.90
45785;DHT22;31489;51.404;5.474;2023-03-11T09:12:57;6.90;74.60
45785;DHT22;31489;51.404;5.474;2023-03-11T09:15:22;6.90;74.80
45785;DHT22;31489;51.404;5.474;2023-03-11T09:17:48;7.00;75.20
45785;DHT22;31489;51.404;5.474;2023-03-11T09:20:14;7.00;74.80
45785;DHT22;31489;51.404;5.474;2023-03-11T09:22:40;7.10;73.60
45785;DHT22;31489;51.404;5.474;2023-03-11T09:25:06;7.20;73.40
45785;DHT22;31489;51.404;5.474;2023-03-11T09:27:32;7.20;73.00
45785;DHT22;31489;51.404;5.474;2023-03-11T09:29:58;7.30;72.50
45785;DHT22;31489;51.404;5.474;2023-03-11T09:32:23;7.40;72.60
45785;DHT22;31489;51.404;5.474;2023-03-11T09:34:49;7.40;72.10
45785;DHT22;31489;51.404;5.474;2023-03-11T09:37:14;7.40;71.40
45785;DHT22;31489;51.404;5.474;2023-03-11T09:39:40;7.50;71.20
45785;DHT22;31489;51.404;5.474;2023-03-11T09:45:03;7.50;70.50
45785;DHT22;31489;51.404;5.474;2023-03-11T09:47:44;7.60;70.40
45785;DHT22;31489;51.404;5.474;2023-03-11T09:55:38;7.80;71.40
45785;DHT22;31489;51.404;5.474;2023-03-11T09:58:20;7.90;69.10
45785;DHT22;31489;51.404;5.474;2023-03-11T10:00:47;8.00;70.90
45785;DHT22;31489;51.404;5.474;2023-03-11T10:03:23;8.10;72.50
45785;DHT22;31489;51.404;5.474;2023-03-11T10:05:51;8.20;69.90
45785;DHT22;31489;51.404;5.474;2023-03-11T10:11:35;8.40;70.10
45785;DHT22;31489;51.404;5.474;2023-03-11T10:17:39;8.70;69.20
45785;DHT22;31489;51.404;5.474;2023-03-11T10:25:59;9.00;71.00
45785;DHT22;31489;51.404;5.474;2023-03-11T10:28:45;9.10;69.40
45785;DHT22;31489;51.404;5.474;2023-03-11T10:31:26;9.10;67.30
45785;DHT22;31489;51.404;5.474;2023-03-11T10:33:56;9.20;68.60
45785;DHT22;31489;51.404;5.474;2023-03-11T10:36:33;9.20;67.90
45785;DHT22;31489;51.404;5.474;2023-03-11T10:39:00;9.20;66.50
45785;DHT22;31489;51.404;5.474;2023-03-11T10:41:53;9.20;67.60
45785;DHT22;31489;51.404;5.474;2023-03-11T10:46:54;9.10;67.00
45785;DHT22;31489;51.404;5.474;2023-03-11T10:49:20;9.20;68.50
45785;DHT22;31489;51.404;5.474;2023-03-11T10:51:48;9.30;68.60
45785;DHT22;31489;51.404;5.474;2023-03-11T10:57:02;9.60;68.20
45785;DHT22;31489;51.404;5.474;2023-03-11T10:59:46;9.90;66.10
45785;DHT22;31489;51.404;5.474;2023-03-11T11:10:25;11.20;71.00
45785;DHT22;31489;51.404;5.474;2023-03-11T11:16:02;12.20;66.40
45785;DHT22;31489;51.404;5.474;2023-03-11T11:18:41;12.50;65.70
45785;DHT22;31489;51.404;5.474;2023-03-11T11:21:13;12.70;67.00
45785;DHT22;31489;51.404;5.474;2023-03-11T11:23:48;12.70;63.40
45785;DHT22;31489;51.404;5.474;2023-03-11T11:26:24;12.70;64.10
45785;DHT22;31489;51.404;5.474;2023-03-11T11:31:42;12.70;60.30
45785;DHT22;31489;51.404;5.474;2023-03-11T11:34:27;12.50;62.80
45785;DHT22;31489;51.404;5.474;2023-03-11T11:36:55;12.40;59.80
45785;DHT22;31489;51.404;5.474;2023-03-11T11:39:22;12.30;62.00
45785;DHT22;31489;51.404;5.474;2023-03-11T11:41:51;12.10;62.30
45785;DHT22;31489;51.404;5.474;2023-03-11T11:44:20;12.10;62.40
45785;DHT22;31489;51.404;5.474;2023-03-11T11:46:58;12.00;62.00
45785;DHT22;31489;51.404;5.474;2023-03-11T11:49:29;12.00;60.60
45785;DHT22;31489;51.404;5.474;2023-03-11T11:52:19;12.00;60.90
45785;DHT22;31489;51.404;5.474;2023-03-11T11:57:42;12.20;59.70
45785;DHT22;31489;51.404;5.474;2023-03-11T12:00:20;12.30;63.30
45785;DHT22;31489;51.404;5.474;2023-03-11T12:02:55;12.50;61.40
45785;DHT22;31489;51.404;5.474;2023-03-11T12:05:31;12.80;65.70
45785;DHT22;31489;51.404;5.474;2023-03-11T12:08:20;13.20;64.70
45785;DHT22;31489;51.404;5.474;2023-03-11T12:11:00;13.70;62.10
45785;DHT22;31489;51.404;5.474;2023-03-11T12:19:02;14.80;60.60
45785;DHT22;31489;51.404;5.474;2023-03-11T12:21:52;15.20;62.90
45785;DHT22;31489;51.404;5.474;2023-03-11T12:24:43;15.50;62.30
45785;DHT22;31489;51.404;5.474;2023-03-11T12:30:16;16.10;59.40
45785;DHT22;31489;51.404;5.474;2023-03-11T12:32:49;16.40;58.40
45785;DHT22;31489;51.404;5.474;2023-03-11T12:35:22;16.70;59.70
45785;DHT22;31489;51.404;5.474;2023-03-11T12:38:14;17.00;61.50
45785;DHT22;31489;51.404;5.474;2023-03-11T12:41:02;17.20;55.80
45785;DHT22;31489;51.404;5.474;2023-03-11T12:46:04;17.70;56.30
45785;DHT22;31489;51.404;5.474;2023-03-11T12:48:46;17.90;56.50
45785;DHT22;31489;51.404;5.474;2023-03-11T12:53:53;18.10;52.00
45785;DHT22;31489;51.404;5.474;2023-03-11T12:56:30;18.10;54.50
45785;DHT22;31489;51.404;5.474;2023-03-11T13:02:03;18.20;50.90
45785;DHT22;31489;51.404;5.474;2023-03-11T13:07:48;18.30;50.80
45785;DHT22;31489;51.404;5.474;2023-03-11T13:10:35;18.30;50.10
45785;DHT22;31489;51.404;5.474;2023-03-11T13:15:52;18.20;48.00
45785;DHT22;31489;51.404;5.474;2023-03-11T13:18:23;18.20;50.50
45785;DHT22;31489;51.404;5.474;2023-03-11T13:20:59;18.10;48.00
45785;DHT22;31489;51.404;5.474;2023-03-11T13:33:50;17.90;46.80
45785;DHT22;31489;51.404;5.474;2023-03-11T13:36:41;17.90;47.50
45785;DHT22;31489;51.404;5.474;2023-03-11T13:41:52;17.80;47.00
45785;DHT22;31489;51.404;5.474;2023-03-11T13:46:56;17.80;48.20
45785;DHT22;31489;51.404;5.474;2023-03-11T13:49:59;17.80;48.20
45785;DHT22;31489;51.404;5.474;2023-03-11T13:52:43;17.80;46.90
45785;DHT22;31489;51.404;5.474;2023-03-11T13:57:55;17.80;46.20
45785;DHT22;31489;51.404;5.474;2023-03-11T14:00:29;17.80;47.50
45785;DHT22;31489;51.404;5.474;2023-03-11T14:03:39;17.80;46.20
45785;DHT22;31489;51.404;5.474;2023-03-11T14:06:07;17.70;46.80
45785;DHT22;31489;51.404;5.474;2023-03-11T14:08:35;17.80;47.80
45785;DHT22;31489;51.404;5.474;2023-03-11T14:13:43;17.90;44.60
45785;DHT22;31489;51.404;5.474;2023-03-11T14:16:17;17.90;44.70
45785;DHT22;31489;51.404;5.474;2023-03-11T14:18:46;18.00;42.90
45785;DHT22;31489;51.404;5.474;2023-03-11T14:21:18;17.90;44.00
45785;DHT22;31489;51.404;5.474;2023-03-11T14:23:46;17.90;44.30
45785;DHT22;31489;51.404;5.474;2023-03-11T14:26:17;17.80;42.60
45785;DHT22;31489;51.404;5.474;2023-03-11T14:28:53;17.80;43.10
45785;DHT22;31489;51.404;5.474;2023-03-11T14:31:28;17.70;43.20
45785;DHT22;31489;51.404;5.474;2023-03-11T14:36:40;17.60;42.20
45785;DHT22;31489;51.404;5.474;2023-03-11T14:39:21;17.60;43.20
45785;DHT22;31489;51.404;5.474;2023-03-11T14:41:48;17.60;44.20
45785;DHT22;31489;51.404;5.474;2023-03-11T14:44:15;17.60;46.00
45785;DHT22;31489;51.404;5.474;2023-03-11T14:46:42;17.70;45.20
45785;DHT22;31489;51.404;5.474;2023-03-11T14:49:16;17.80;44.90
45785;DHT22;31489;51.404;5.474;2023-03-11T14:51:54;17.80;42.80
45785;DHT22;31489;51.404;5.474;2023-03-11T14:54:24;17.90;42.70
45785;DHT22;31489;51.404;5.474;2023-03-11T14:57:22;17.90;43.60
45785;DHT22;31489;51.404;5.474;2023-03-11T14:59:48;17.90;42.10
45785;DHT22;31489;51.404;5.474;2023-03-11T15:04:56;17.90;42.10
45785;DHT22;31489;51.404;5.474;2023-03-11T15:07:28;17.80;43.80
45785;DHT22;31489;51.404;5.474;2023-03-11T15:09:55;17.80;42.70
45785;DHT22;31489;51.404;5.474;2023-03-11T15:12:41;17.70;43.20
45785;DHT22;31489;51.404;5.474;2023-03-11T15:15:22;17.50;42.40
45785;DHT22;31489;51.404;5.474;2023-03-11T15:17:56;17.40;41.60
45785;DHT22;31489;51.404;5.474;2023-03-11T15:22:57;17.00;41.60
45785;DHT22;31489;51.404;5.474;2023-03-11T15:25:26;16.80;42.70
45785;DHT22;31489;51.404;5.474;2023-03-11T15:27:53;16.60;43.20
45785;DHT22;31489;51.404;5.474;2023-03-11T15:30:25;16.50;44.00
45785;DHT22;31489;51.404;5.474;2023-03-11T15:32:54;16.40;43.80
45785;DHT22;31489;51.404;5.474;2023-03-11T15:35:28;16.20;42.90
45785;DHT22;31489;51.404;5.474;2023-03-11T15:38:22;16.10;44.20
45785;DHT22;31489;51.404;5.474;2023-03-11T15:41:00;16.00;42.60
45785;DHT22;31489;51.404;5.474;2023-03-11T15:43:46;15.90;42.90
45785;DHT22;31489;51.404;5.474;2023-03-11T15:46:14;15.90;43.50
45785;DHT22;31489;51.404;5.474;2023-03-11T15:48:41;15.70;44.30
45785;DHT22;31489;51.404;5.474;2023-03-11T15:51:18;15.60;43.60
45785;DHT22;31489;51.404;5.474;2023-03-11T15:53:44;15.50;42.20
45785;DHT22;31489;51.404;5.474;2023-03-11T15:56:15;15.40;44.00
45785;DHT22;31489;51.404;5.474;2023-03-11T15:58:44;15.20;43.60
45785;DHT22;31489;51.404;5.474;2023-03-11T16:01:09;15.10;44.80
45785;DHT22;31489;51.404;5.474;2023-03-11T16:03:35;15.00;45.10
45785;DHT22;31489;51.404;5.474;2023-03-11T16:06:03;14.90;46.50
45785;DHT22;31489;51.404;5.474;2023-03-11T16:08:28;14.80;46.10
45785;DHT22;31489;51.404;5.474;2023-03-11T16:10:54;14.70;45.80
45785;DHT22;31489;51.404;5.474;2023-03-11T16:13:20;14.60;45.70
45785;DHT22;31489;51.404;5.474;2023-03-11T16:15:45;14.50;45.60
45785;DHT22;31489;51.404;5.474;2023-03-11T16:18:11;14.40;45.80
45785;DHT22;31489;51.404;5.474;2023-03-11T16:20:43;14.30;45.30
45785;DHT22;31489;51.404;5.474;2023-03-11T16:23:23;14.20;44.80
45785;DHT22;31489;51.404;5.474;2023-03-11T16:25:52;14.10;45.30
45785;DHT22;31489;51.404;5.474;2023-03-11T16:28:20;14.10;47.20
45785;DHT22;31489;51.404;5.474;2023-03-11T16:30:49;14.00;47.00
45785;DHT22;31489;51.404;5.474;2023-03-11T16:33:15;13.90;47.50
45785;DHT22;31489;51.404;5.474;2023-03-11T16:35:40;13.90;49.00
45785;DHT22;31489;51.404;5.474;2023-03-11T16:38:06;13.80;48.20
45785;DHT22;31489;51.404;5.474;2023-03-11T16:40:33;13.80;48.50
45785;DHT22;31489;51.404;5.474;2023-03-11T16:43:19;13.70;48.50
45785;DHT22;31489;51.404;5.474;2023-03-11T16:45:44;13.60;47.00
45785;DHT22;31489;51.404;5.474;2023-03-11T16:48:10;13.60;49.00
45785;DHT22;31489;51.404;5.474;2023-03-11T16:50:35;13.50;49.20
45785;DHT22;31489;51.404;5.474;2023-03-11T16:53:01;13.50;49.40
45785;DHT22;31489;51.404;5.474;2023-03-11T16:55:27;13.40;49.60
45785;DHT22;31489;51.404;5.474;2023-03-11T16:57:54;13.40;49.60
45785;DHT22;31489;51.404;5.474;2023-03-11T17:00:22;13.30;49.30
45785;DHT22;31489;51.404;5.474;2023-03-11T17:02:48;13.20;49.30
45785;DHT22;31489;51.404;5.474;2023-03-11T17:05:14;13.20;49.20
45785;DHT22;31489;51.404;5.474;2023-03-11T17:07:40;13.10;48.20
45785;DHT22;31489;51.404;5.474;2023-03-11T17:10:07;13.00;48.90
45785;DHT22;31489;51.404;5.474;2023-03-11T17:12:34;13.00;49.30
45785;DHT22;31489;51.404;5.474;2023-03-11T17:15:00;12.90;50.20
45785;DHT22;31489;51.404;5.474;2023-03-11T17:17:26;12.90;50.30
45785;DHT22;31489;51.404;5.474;2023-03-11T17:19:51;12.80;50.40
45785;DHT22;31489;51.404;5.474;2023-03-11T17:22:17;12.80;50.70
45785;DHT22;31489;51.404;5.474;2023-03-11T17:24:45;12.70;51.30
45785;DHT22;31489;51.404;5.474;2023-03-11T17:27:11;12.70;50.90
45785;DHT22;31489;51.404;5.474;2023-03-11T17:29:36;12.60;50.80
45785;DHT22;31489;51.404;5.474;2023-03-11T17:32:02;12.60;51.00
45785;DHT22;31489;51.404;5.474;2023-03-11T17:34:30;12.40;51.20